Time;durP1;ratioP1;P1;durP2;ratioP2;P2;SDS_P1;SDS_P2;PMS_P1;PMS_P2;Temp;Humidity;BMP_temperature;BMP_pressure;BME280_temperature;BME280_humidity;BME280_pressure;Samples;Min_cycle;Max_cycle;Signal;HPM_P1;HPM_P2
2023/05/27 00:00:08;;;;;;;8.67;3.67;;;11.50;92.50;;;;;;2068385;28;20249;-67
2023/05/27 00:01:08;;;;;;;11.65;4.20;;;11.50;92.30;;;;;;2057067;28;20274;-67
2023/05/27 00:02:09;;;;;;;8.57;4.60;;;11.50;92.70;;;;;;2055739;28;20226;-66
2023/05/27 00:03:10;;;;;;;8.40;4.17;;;11.50;92.60;;;;;;2058893;28;20175;-66
2023/05/27 00:04:10;;;;;;;6.77;3.67;;;11.30;99.90;;;;;;2058686;28;20279;-67
2023/05/27 00:05:11;;;;;;;7.07;4.00;;;11.40;92.80;;;;;;2058259;28;20286;-66
2023/05/27 00:06:12;;;;;;;6.83;3.97;;;11.70;92.70;;;;;;2058941;28;20189;-68
2023/05/27 00:07:13;;;;;;;6.43;4.00;;;11.90;93.00;;;;;;2054043;28;20590;-67
2023/05/27 00:08:14;;;;;;;6.60;4.33;;;11.60;92.50;;;;;;2055894;28;20190;-66
2023/05/27 00:09:14;;;;;;;5.13;3.47;;;11.80;92.40;;;;;;2059216;28;20240;-67
2023/05/27 00:10:15;;;;;;;8.63;4.40;;;11.60;92.30;;;;;;2068905;28;20246;-67
2023/05/27 00:11:16;;;;;;;7.50;4.10;;;11.60;92.90;;;;;;2059538;28;20198;-67
2023/05/27 00:12:17;;;;;;;6.80;4.60;;;11.60;92.30;;;;;;2051389;28;20687;-66
2023/05/27 00:13:18;;;;;;;8.80;4.60;;;11.70;92.20;;;;;;2054282;28;20269;-67
2023/05/27 00:14:20;;;;;;;7.10;4.07;;;11.60;92.10;;;;;;2061865;28;20213;-67
2023/05/27 00:15:21;;;;;;;7.35;4.22;;;11.60;92.20;;;;;;2058986;28;20602;-67
2023/05/27 00:16:23;;;;;;;8.68;4.45;;;11.60;92.20;;;;;;2060343;28;20289;-67
2023/05/27 00:17:25;;;;;;;7.05;4.15;;;11.60;92.10;;;;;;2060300;28;20233;-66
2023/05/27 00:18:26;;;;;;;6.70;4.07;;;11.60;92.00;;;;;;2062869;28;20309;-67
2023/05/27 00:19:29;;;;;;;7.57;4.10;;;11.60;92.00;;;;;;2059569;28;20771;-68
2023/05/27 00:20:30;;;;;;;6.43;3.92;;;11.50;92.20;;;;;;2061839;28;20312;-67
2023/05/27 00:21:32;;;;;;;9.30;3.70;;;11.50;92.30;;;;;;2059958;28;20234;-67
2023/05/27 00:22:34;;;;;;;4.78;3.65;;;11.50;92.40;;;;;;2059660;28;20222;-66
2023/05/27 00:23:35;;;;;;;10.55;4.68;;;11.50;92.30;;;;;;2057889;28;20284;-66
2023/05/27 00:24:38;;;;;;;5.97;4.10;;;11.50;92.40;;;;;;2062381;28;20285;-67
2023/05/27 00:25:41;;;;;;;7.63;4.10;;;11.50;92.50;;;;;;2059394;28;20215;-67
2023/05/27 00:26:41;;;;;;;4.88;3.53;;;11.40;92.80;;;;;;2069145;28;20229;-67
2023/05/27 00:27:42;;;;;;;7.03;4.03;;;11.40;92.90;;;;;;2068099;28;20707;-68
2023/05/27 00:28:43;;;;;;;6.53;4.03;;;11.30;93.10;;;;;;2061646;28;20255;-67
2023/05/27 00:29:44;;;;;;;7.35;4.07;;;11.30;93.30;;;;;;2074922;28;20247;-67
2023/05/27 00:30:45;;;;;;;5.93;3.77;;;11.30;93.30;;;;;;2054406;28;20227;-69
2023/05/27 00:31:45;;;;;;;7.80;3.97;;;11.30;93.10;;;;;;2062562;28;20234;-69
2023/05/27 00:32:46;;;;;;;9.27;4.70;;;11.60;93.50;;;;;;2065695;28;20262;-69
2023/05/27 00:33:47;;;;;;;9.23;3.70;;;11.30;93.50;;;;;;2060440;28;20234;-69
2023/05/27 00:34:48;;;;;;;6.45;4.25;;;11.30;94.20;;;;;;2070933;28;20253;-69
2023/05/27 00:35:49;;;;;;;10.90;4.20;;;11.20;93.70;;;;;;2059565;28;20262;-68
2023/05/27 00:36:50;;;;;;;8.80;4.13;;;11.20;93.60;;;;;;2068189;28;20237;-69
2023/05/27 00:37:51;;;;;;;5.17;4.17;;;11.30;93.70;;;;;;2062980;28;20229;-69
2023/05/27 00:38:51;;;;;;;9.67;4.80;;;11.30;93.60;;;;;;2060016;28;20302;-69
2023/05/27 00:39:52;;;;;;;5.83;4.13;;;11.30;93.60;;;;;;2063783;28;20284;-68
2023/05/27 00:40:54;;;;;;;9.07;4.90;;;11.30;93.60;;;;;;2064041;28;20218;-68
2023/05/27 00:41:57;;;;;;;14.57;5.47;;;11.30;93.70;;;;;;2064696;28;20677;-69
2023/05/27 00:42:58;;;;;;;9.38;4.57;;;11.20;93.60;;;;;;2064468;28;20633;-68
2023/05/27 00:43:59;;;;;;;8.70;4.63;;;11.40;99.90;;;;;;2064056;28;20221;-68
2023/05/27 00:44:59;;;;;;;8.97;4.80;;;11.20;93.90;;;;;;2059518;28;20602;-69
2023/05/27 00:46:02;;;;;;;6.53;4.03;;;11.20;94.10;;;;;;2041681;28;20311;-69
2023/05/27 00:47:03;;;;;;;7.93;4.63;;;11.30;99.90;;;;;;2040232;28;20267;-69
2023/05/27 00:48:04;;;;;;;6.17;3.80;;;11.10;94.30;;;;;;2060131;28;20282;-68
2023/05/27 00:49:05;;;;;;;7.60;4.22;;;11.00;94.30;;;;;;2068865;28;20687;-69
2023/05/27 00:50:07;;;;;;;8.33;4.90;;;11.00;94.50;;;;;;2058227;28;20195;-69
2023/05/27 00:51:08;;;;;;;8.20;4.53;;;11.10;94.40;;;;;;2069543;28;20178;-69
2023/05/27 00:52:09;;;;;;;9.88;4.95;;;10.90;99.90;;;;;;2070660;28;20676;-69
2023/05/27 00:53:10;;;;;;;9.40;4.32;;;11.00;94.40;;;;;;2057349;28;20339;-68
2023/05/27 00:54:11;;;;;;;6.27;4.47;;;11.00;99.90;;;;;;2052004;28;20685;-67
2023/05/27 00:55:13;;;;;;;8.68;4.85;;;11.00;94.50;;;;;;2056197;28;20207;-68
2023/05/27 00:56:15;;;;;;;8.35;4.78;;;11.00;94.50;;;;;;2048665;28;20191;-67
2023/05/27 00:57:16;;;;;;;7.50;4.57;;;11.00;94.50;;;;;;2040718;28;20192;-68
2023/05/27 00:58:18;;;;;;;6.53;4.23;;;11.00;94.50;;;;;;2056025;28;20748;-67
2023/05/27 00:59:19;;;;;;;8.20;4.65;;;11.20;94.70;;;;;;2052789;28;20682;-67
2023/05/27 01:00:23;;;;;;;6.43;3.90;;;11.00;94.70;;;;;;2053005;28;20262;-68
2023/05/27 01:01:26;;;;;;;9.35;4.47;;;10.90;94.70;;;;;;2060810;28;20237;-67
2023/05/27 01:02:27;;;;;;;6.93;4.15;;;10.90;94.70;;;;;;2066522;28;20606;-68
2023/05/27 01:03:32;;;;;;;7.78;4.28;;;11.10;94.70;;;;;;2066222;28;20229;-67
2023/05/27 01:04:33;;;;;;;8.15;3.95;;;11.20;94.80;;;;;;2060760;28;20226;-67
2023/05/27 01:05:34;;;;;;;8.60;4.43;;;11.00;94.60;;;;;;2054941;28;20227;-67
2023/05/27 01:06:48;;;;;;;9.23;4.47;;;11.00;94.70;;;;;;2060472;28;20358;-67
2023/05/27 01:08:34;;;;;;;7.68;4.00;;;11.00;94.90;;;;;;2050934;28;20286;-67
2023/05/27 01:09:56;;;;;;;5.78;3.97;;;11.00;94.80;;;;;;2056212;28;20222;-67
2023/05/27 01:10:58;;;;;;;6.10;3.90;;;10.90;95.20;;;;;;2060587;28;20222;-69
2023/05/27 01:12:45;;;;;;;11.10;4.70;;;10.80;95.40;;;;;;2059566;28;20223;-68
2023/05/27 01:14:07;;;;;;;7.20;4.20;;;10.80;95.50;;;;;;2059594;28;20223;-67
2023/05/27 01:15:12;;;;;;;11.02;5.10;;;10.70;95.70;;;;;;2058721;28;20227;-67
2023/05/27 01:16:15;;;;;;;6.53;3.95;;;10.70;95.80;;;;;;2059262;28;20630;-68
2023/05/27 01:17:19;;;;;;;7.47;4.25;;;10.70;95.90;;;;;;2056977;28;20222;-67
2023/05/27 01:18:22;;;;;;;7.63;4.32;;;10.80;96.10;;;;;;2060781;28;21079;-67
2023/05/27 01:19:42;;;;;;;7.88;4.45;;;10.70;95.90;;;;;;2053470;28;20319;-67
2023/05/27 01:20:47;;;;;;;7.85;4.32;;;10.70;95.90;;;;;;2049928;28;20701;-67
2023/05/27 01:21:50;;;;;;;10.25;3.95;;;10.70;96.00;;;;;;2058929;28;20277;-67
2023/05/27 01:22:57;;;;;;;8.55;4.60;;;10.60;96.00;;;;;;2052054;28;20321;-67
2023/05/27 01:24:03;;;;;;;8.60;5.00;;;10.80;99.90;;;;;;2056311;28;20265;-67
2023/05/27 01:25:05;;;;;;;11.82;4.65;;;10.70;96.20;;;;;;2052225;28;20227;-68
2023/05/27 01:26:06;;;;;;;7.32;4.47;;;10.60;96.10;;;;;;2063459;28;20201;-68
2023/05/27 01:27:08;;;;;;;7.20;4.23;;;10.60;96.20;;;;;;2068127;28;20273;-68
2023/05/27 01:28:08;;;;;;;9.63;4.72;;;10.80;99.90;;;;;;2069676;28;20197;-68
2023/05/27 01:29:10;;;;;;;6.93;4.47;;;10.50;99.90;;;;;;2054848;28;20218;-67
2023/05/27 01:30:14;;;;;;;9.50;4.70;;;10.60;96.30;;;;;;2055081;28;20190;-67
2023/05/27 01:31:21;;;;;;;7.82;4.35;;;10.50;99.90;;;;;;2057646;28;20624;-67
2023/05/27 01:32:31;;;;;;;10.20;4.78;;;10.90;96.30;;;;;;2052173;28;20244;-67
2023/05/27 01:33:37;;;;;;;12.55;4.35;;;10.70;99.90;;;;;;2051870;28;20231;-66
2023/05/27 01:35:25;;;;;;;8.73;4.43;;;10.50;99.90;;;;;;2062667;28;20252;-66
2023/05/27 01:36:31;;;;;;;8.48;4.20;;;10.60;99.90;;;;;;2051970;28;20248;-67
2023/05/27 01:37:36;;;;;;;8.65;4.38;;;10.40;99.90;;;;;;2052455;28;20219;-67
2023/05/27 01:38:43;;;;;;;10.02;4.30;;;10.80;96.50;;;;;;2048449;28;20227;-67
2023/05/27 01:39:45;;;;;;;6.45;4.38;;;10.60;96.40;;;;;;2048655;28;20230;-67
2023/05/27 01:40:47;;;;;;;9.52;4.55;;;10.70;99.90;;;;;;2058392;28;20604;-67
2023/05/27 01:41:49;;;;;;;9.18;4.40;;;10.60;96.40;;;;;;2066423;28;20218;-67
2023/05/27 01:42:50;;;;;;;7.47;4.13;;;10.50;99.90;;;;;;2059232;28;20222;-67
2023/05/27 01:43:51;;;;;;;9.02;4.75;;;10.30;99.90;;;;;;2054259;28;20242;-67
2023/05/27 01:44:56;;;;;;;10.73;4.32;;;11.10;96.60;;;;;;2048676;28;20257;-67
2023/05/27 01:45:57;;;;;;;10.23;5.10;;;10.60;96.40;;;;;;2055984;28;20223;-67
2023/05/27 01:47:00;;;;;;;8.88;4.63;;;10.50;96.40;;;;;;2045162;28;20220;-67
2023/05/27 01:48:01;;;;;;;7.38;4.25;;;11.10;96.60;;;;;;2042232;28;20306;-68
2023/05/27 01:49:03;;;;;;;8.80;5.05;;;11.20;99.90;;;;;;2052846;28;20227;-68
2023/05/27 01:50:05;;;;;;;6.40;4.28;;;10.60;99.90;;;;;;2060701;28;20183;-67
2023/05/27 01:51:06;;;;;;;8.90;4.55;;;10.30;99.90;;;;;;2055013;28;20663;-67
2023/05/27 01:52:08;;;;;;;7.93;5.03;;;10.50;96.30;;;;;;2045788;29;20215;-67
2023/05/27 01:53:11;;;;;;;6.70;4.57;;;;;;;;;;2057336;28;20207;-67
2023/05/27 01:54:12;;;;;;;6.22;4.30;;;;;;;;;;2062942;28;20261;-67
2023/05/27 01:55:13;;;;;;;7.35;4.10;;;10.60;99.90;;;;;;2054233;28;20246;-67
2023/05/27 01:56:14;;;;;;;7.63;4.67;;;10.30;99.90;;;;;;2047581;28;20329;-67
2023/05/27 01:57:17;;;;;;;8.60;4.60;;;10.50;99.90;;;;;;2055929;28;20681;-67
2023/05/27 01:58:17;;;;;;;11.52;4.68;;;10.40;99.90;;;;;;2062913;28;20217;-67
2023/05/27 01:59:18;;;;;;;6.67;4.13;;;10.40;96.90;;;;;;2064538;28;20206;-67
2023/05/27 02:00:19;;;;;;;11.23;4.50;;;10.40;96.80;;;;;;2067814;28;20254;-67
2023/05/27 02:01:22;;;;;;;11.03;5.37;;;10.70;99.90;;;;;;2058500;28;20235;-67
2023/05/27 02:02:22;;;;;;;8.18;4.50;;;10.40;96.70;;;;;;2062519;28;20218;-67
2023/05/27 02:03:23;;;;;;;7.33;4.17;;;10.40;96.70;;;;;;2068001;28;20350;-67
2023/05/27 02:04:24;;;;;;;8.93;4.03;;;10.30;96.70;;;;;;2062986;28;20701;-67
2023/05/27 02:05:24;;;;;;;7.57;5.20;;;10.30;97.10;;;;;;2055881;28;20238;-67
2023/05/27 02:06:26;;;;;;;8.33;4.60;;;10.30;97.10;;;;;;2063762;28;20234;-67
2023/05/27 02:07:27;;;;;;;9.18;4.53;;;10.50;99.90;;;;;;2063871;28;20245;-68
2023/05/27 02:08:28;;;;;;;8.80;3.78;;;10.50;99.90;;;;;;2060380;28;20247;-67
2023/05/27 02:09:29;;;;;;;10.37;4.67;;;10.20;99.90;;;;;;2062021;28;20222;-67
2023/05/27 02:10:30;;;;;;;6.20;4.27;;;;;;;;;;2060607;28;20291;-67
2023/05/27 02:11:31;;;;;;;8.85;4.93;;;10.50;99.90;;;;;;2059133;28;20233;-67
2023/05/27 02:12:32;;;;;;;5.93;3.78;;;10.50;99.90;;;;;;2058054;28;20237;-68
2023/05/27 02:13:33;;;;;;;6.70;4.00;;;10.40;99.90;;;;;;2061881;28;20241;-67
2023/05/27 02:14:38;;;;;;;9.57;4.20;;;10.20;99.90;;;;;;2059414;28;20325;-68
2023/05/27 02:15:40;;;;;;;9.95;4.10;;;10.10;99.90;;;;;;2056250;28;20604;-68
2023/05/27 02:16:42;;;;;;;9.57;4.45;;;10.20;99.90;;;;;;2062960;28;20230;-69
2023/05/27 02:17:45;;;;;;;10.68;4.00;;;10.40;99.90;;;;;;2057082;28;20222;-68
2023/05/27 02:18:51;;;;;;;7.90;4.22;;;10.10;99.90;;;;;;2061902;28;20711;-66
2023/05/27 02:19:51;;;;;;;12.50;4.32;;;9.80;99.90;;;;;;2052038;28;20222;-66
2023/05/27 02:20:52;;;;;;;8.90;4.40;;;10.10;99.90;;;;;;2061377;28;20225;-66
2023/05/27 02:21:53;;;;;;;7.70;4.37;;;10.10;97.20;;;;;;2060034;28;20257;-66
2023/05/27 02:22:54;;;;;;;11.13;4.20;;;10.10;97.20;;;;;;2052918;28;20659;-66
2023/05/27 02:23:55;;;;;;;11.60;4.30;;;9.70;99.90;;;;;;2061636;28;20214;-67
2023/05/27 02:24:55;;;;;;;7.10;4.10;;;10.00;97.30;;;;;;2060541;28;20237;-67
2023/05/27 02:25:56;;;;;;;10.93;4.53;;;9.80;99.90;;;;;;2059963;28;20601;-68
2023/05/27 02:26:58;;;;;;;10.60;4.47;;;9.80;99.90;;;;;;2057647;28;20218;-67
2023/05/27 02:28:02;;;;;;;7.55;4.13;;;;;;;;;;2066076;28;20224;-67
2023/05/27 02:29:03;;;;;;;9.60;4.43;;;9.70;99.90;;;;;;2064775;28;20655;-67
2023/05/27 02:30:05;;;;;;;8.07;4.47;;;9.70;99.90;;;;;;2059511;28;20190;-67
2023/05/27 02:31:06;;;;;;;7.85;4.07;;;10.10;99.90;;;;;;2063383;28;20198;-67
2023/05/27 02:32:08;;;;;;;11.33;4.20;;;10.10;99.90;;;;;;2056634;28;20273;-68
2023/05/27 02:33:09;;;;;;;9.95;4.75;;;9.90;99.90;;;;;;2059822;28;20214;-67
2023/05/27 02:34:10;;;;;;;7.13;4.13;;;10.20;99.90;;;;;;2059122;28;20625;-67
2023/05/27 02:35:14;;;;;;;8.37;4.80;;;10.00;99.90;;;;;;2055145;28;20218;-68
2023/05/27 02:36:15;;;;;;;8.82;4.30;;;9.80;99.90;;;;;;2047308;28;20761;-66
2023/05/27 02:37:16;;;;;;;12.03;4.10;;;;;;;;;;2047396;28;20175;-67
2023/05/27 02:38:17;;;;;;;10.43;4.57;;;9.90;99.90;;;;;;2054989;28;20189;-67
2023/05/27 02:39:18;;;;;;;10.57;4.10;;;9.80;99.90;;;;;;2057238;28;20194;-67
2023/05/27 02:40:28;;;;;;;6.00;3.83;;;9.90;99.90;;;;;;2060236;28;20187;-68
2023/05/27 02:41:29;;;;;;;8.57;4.28;;;10.10;99.90;;;;;;2051520;28;20264;-67
2023/05/27 02:42:30;;;;;;;10.10;4.40;;;;;;;;;;2058035;28;20233;-66
2023/05/27 02:43:31;;;;;;;8.00;4.10;;;9.60;99.90;;;;;;2055624;28;20247;-67
2023/05/27 02:44:32;;;;;;;9.67;4.30;;;;;;;;;;2046636;28;20238;-67
2023/05/27 02:45:33;;;;;;;8.90;4.68;;;9.00;99.90;;;;;;2044005;28;20241;-67
2023/05/27 02:46:34;;;;;;;7.25;4.22;;;9.90;99.90;;;;;;2056547;28;20587;-67
2023/05/27 02:47:34;;;;;;;6.73;4.20;;;9.60;99.90;;;;;;2059911;28;20226;-67
2023/05/27 02:48:35;;;;;;;10.33;4.40;;;9.90;99.90;;;;;;2059783;28;20380;-67
2023/05/27 02:49:36;;;;;;;9.27;4.10;;;9.90;99.90;;;;;;2055717;28;20332;-67
2023/05/27 02:50:37;;;;;;;11.13;4.30;;;;;;;;;;2058871;28;20238;-67
2023/05/27 02:51:38;;;;;;;8.48;4.00;;;9.90;99.90;;;;;;2048873;28;20325;-68
2023/05/27 02:52:39;;;;;;;8.17;4.10;;;9.90;99.90;;;;;;2047086;28;20238;-67
2023/05/27 02:53:40;;;;;;;8.25;4.20;;;9.90;99.90;;;;;;2061066;28;20276;-67
2023/05/27 02:54:41;;;;;;;7.20;4.43;;;9.70;99.90;;;;;;2061371;28;20720;-67
2023/05/27 02:55:42;;;;;;;11.68;4.82;;;;;;;;;;2059061;28;20610;-66
2023/05/27 02:56:42;;;;;;;6.05;4.43;;;9.50;99.90;;;;;;2059917;28;20226;-67
2023/05/27 02:57:43;;;;;;;10.13;4.50;;;9.90;99.90;;;;;;2066947;28;20218;-67
2023/05/27 02:58:44;;;;;;;8.07;4.60;;;10.00;99.90;;;;;;2067271;28;20304;-68
2023/05/27 02:59:45;;;;;;;7.17;4.17;;;10.00;99.90;;;;;;2060535;28;20220;-67
2023/05/27 03:00:46;;;;;;;9.13;4.07;;;10.00;99.90;;;;;;2056378;28;20226;-67
2023/05/27 03:01:46;;;;;;;12.00;4.97;;;9.80;99.90;;;;;;2061425;28;20222;-66
2023/05/27 03:02:47;;;;;;;8.33;4.30;;;9.50;99.90;;;;;;2063084;28;20229;-66
2023/05/27 03:03:48;;;;;;;7.83;4.40;;;;;;;;;;2059659;28;20242;-67
2023/05/27 03:04:49;;;;;;;6.70;4.75;;;9.90;99.90;;;;;;2055372;28;20342;-67
2023/05/27 03:05:50;;;;;;;10.17;4.63;;;9.70;99.90;;;;;;2057352;28;20307;-67
2023/05/27 03:06:51;;;;;;;15.00;4.43;;;;;;;;;;2048469;28;20258;-66
2023/05/27 03:07:53;;;;;;;12.00;4.40;;;;;;;;;;2053840;28;20237;-67
2023/05/27 03:08:53;;;;;;;11.40;4.15;;;9.80;99.90;;;;;;2051765;28;20252;-67
2023/05/27 03:09:55;;;;;;;7.33;4.47;;;;;;;;;;2057559;28;20254;-66
2023/05/27 03:10:56;;;;;;;9.48;4.47;;;9.90;99.90;;;;;;2056954;28;20227;-67
2023/05/27 03:11:57;;;;;;;7.37;4.27;;;9.50;99.90;;;;;;2050722;28;20281;-67
2023/05/27 03:12:58;;;;;;;12.30;4.22;;;9.30;99.90;;;;;;2062519;28;20608;-67
2023/05/27 03:13:59;;;;;;;10.53;4.40;;;9.50;99.90;;;;;;2058897;28;20237;-67
2023/05/27 03:15:00;;;;;;;12.47;4.73;;;;;;;;;;2058611;28;20229;-69
2023/05/27 03:16:01;;;;;;;13.93;5.07;;;9.50;99.90;;;;;;2056726;28;20194;-68
2023/05/27 03:17:02;;;;;;;8.00;4.45;;;9.20;99.90;;;;;;2067041;28;20260;-68
2023/05/27 03:18:03;;;;;;;8.20;4.23;;;9.70;99.90;;;;;;2058359;28;20664;-68
2023/05/27 03:19:04;;;;;;;9.43;4.15;;;9.30;99.90;;;;;;2060181;28;20615;-67
2023/05/27 03:20:07;;;;;;;10.47;5.53;;;9.50;98.00;;;;;;2057547;28;20177;-68
2023/05/27 03:21:08;;;;;;;10.70;4.55;;;9.50;98.00;;;;;;2059573;28;20186;-67
2023/05/27 03:22:09;;;;;;;9.40;4.53;;;9.50;98.00;;;;;;2067027;28;20643;-67
2023/05/27 03:23:10;;;;;;;6.13;4.10;;;9.50;98.00;;;;;;2068507;28;20182;-68
2023/05/27 03:24:10;;;;;;;6.83;4.00;;;9.70;99.90;;;;;;2061097;28;20201;-67
2023/05/27 03:25:11;;;;;;;9.73;4.27;;;9.40;98.20;;;;;;2060023;28;20185;-68
2023/05/27 03:26:12;;;;;;;9.13;4.40;;;9.40;98.30;;;;;;2056110;28;20628;-67
2023/05/27 03:27:13;;;;;;;6.30;4.00;;;9.40;98.20;;;;;;2059925;28;20210;-67
2023/05/27 03:28:14;;;;;;;6.07;4.07;;;9.40;98.10;;;;;;2066676;28;20666;-67
2023/05/27 03:29:15;;;;;;;9.95;4.82;;;9.60;98.20;;;;;;2065733;28;20212;-67
2023/05/27 03:30:17;;;;;;;8.40;4.05;;;9.60;98.30;;;;;;2062593;28;20196;-66
2023/05/27 03:31:18;;;;;;;8.25;4.43;;;9.40;98.30;;;;;;2058796;28;20204;-67
2023/05/27 03:32:19;;;;;;;12.63;4.40;;;9.40;98.30;;;;;;2060221;28;20576;-67
2023/05/27 03:33:20;;;;;;;6.60;4.30;;;9.40;98.70;;;;;;2064466;28;20489;-67
2023/05/27 03:34:20;;;;;;;13.70;5.03;;;9.30;98.60;;;;;;2066413;28;20244;-67
2023/05/27 03:35:21;;;;;;;15.07;5.17;;;9.40;98.60;;;;;;2060853;28;20252;-66
2023/05/27 03:36:22;;;;;;;10.13;4.17;;;9.30;98.60;;;;;;2059639;28;20226;-66
2023/05/27 03:37:23;;;;;;;9.73;4.57;;;9.30;98.50;;;;;;2063529;28;20707;-66
2023/05/27 03:38:23;;;;;;;8.85;4.15;;;9.40;98.40;;;;;;2062816;28;20233;-66
2023/05/27 03:39:24;;;;;;;7.17;3.77;;;9.40;98.40;;;;;;2060131;28;20245;-66
2023/05/27 03:40:25;;;;;;;8.50;4.43;;;9.40;98.40;;;;;;2060347;28;20242;-66
2023/05/27 03:41:26;;;;;;;10.53;4.53;;;9.30;98.40;;;;;;2059683;28;20324;-66
2023/05/27 03:42:27;;;;;;;7.80;3.85;;;9.40;98.30;;;;;;2059277;28;20772;-66
2023/05/27 03:43:28;;;;;;;9.80;4.47;;;9.40;98.10;;;;;;2058906;28;20236;-66
2023/05/27 03:44:28;;;;;;;11.37;4.43;;;9.40;98.20;;;;;;2053140;28;20287;-66
2023/05/27 03:45:30;;;;;;;10.67;4.13;;;9.40;98.30;;;;;;2059958;28;21325;-66
2023/05/27 03:46:32;;;;;;;8.35;4.45;;;9.40;98.20;;;;;;2055236;28;20287;-66
2023/05/27 03:47:34;;;;;;;7.72;4.13;;;9.40;98.20;;;;;;2048659;28;20238;-66
2023/05/27 03:48:35;;;;;;;9.32;4.40;;;9.40;98.20;;;;;;2055238;28;20226;-66
2023/05/27 03:49:36;;;;;;;6.13;4.50;;;9.40;98.10;;;;;;2063479;28;20237;-66
2023/05/27 03:50:37;;;;;;;11.37;4.13;;;9.40;98.30;;;;;;2058103;28;20261;-66
2023/05/27 03:51:37;;;;;;;10.03;4.13;;;9.40;98.50;;;;;;2059302;28;20703;-67
2023/05/27 03:52:38;;;;;;;11.87;4.17;;;9.40;98.70;;;;;;2058740;28;20247;-67
2023/05/27 03:53:39;;;;;;;8.13;4.17;;;9.30;98.60;;;;;;2066699;28;20291;-66
2023/05/27 03:54:41;;;;;;;9.63;4.53;;;9.40;98.60;;;;;;2066111;28;20311;-67
2023/05/27 03:55:42;;;;;;;11.98;4.63;;;9.40;98.50;;;;;;2059087;28;20681;-67
2023/05/27 03:56:43;;;;;;;8.67;4.00;;;9.40;98.40;;;;;;2062693;28;20225;-68
2023/05/27 03:57:43;;;;;;;8.50;4.63;;;9.40;98.30;;;;;;2055086;28;20246;-67
2023/05/27 03:58:44;;;;;;;10.70;4.27;;;9.40;98.30;;;;;;2061475;28;20223;-67
2023/05/27 03:59:45;;;;;;;10.63;4.50;;;9.40;98.30;;;;;;2060825;28;20257;-67
2023/05/27 04:00:47;;;;;;;8.98;4.32;;;9.40;98.20;;;;;;2062047;28;20304;-67
2023/05/27 04:01:48;;;;;;;8.38;4.25;;;9.40;98.10;;;;;;2062498;28;20214;-67
2023/05/27 04:02:49;;;;;;;10.47;4.70;;;9.30;98.20;;;;;;2063269;28;20786;-68
2023/05/27 04:03:50;;;;;;;6.00;3.70;;;9.40;98.40;;;;;;2068453;28;20228;-67
2023/05/27 04:04:52;;;;;;;8.70;4.30;;;9.40;98.50;;;;;;2064681;28;20237;-67
2023/05/27 04:05:53;;;;;;;9.50;4.22;;;9.40;98.50;;;;;;2059131;28;20221;-67
2023/05/27 04:06:55;;;;;;;9.27;4.03;;;9.30;98.70;;;;;;2061551;28;20328;-67
2023/05/27 04:07:56;;;;;;;9.07;5.13;;;9.30;98.80;;;;;;2068755;28;20303;-67
2023/05/27 04:08:57;;;;;;;12.00;3.73;;;9.40;98.70;;;;;;2053391;28;20603;-67
2023/05/27 04:09:58;;;;;;;8.07;4.25;;;9.40;98.70;;;;;;2052238;28;20223;-67
2023/05/27 04:10:58;;;;;;;8.33;4.50;;;9.40;98.60;;;;;;2060271;28;20594;-67
2023/05/27 04:12:00;;;;;;;8.20;4.60;;;9.60;98.50;;;;;;2061018;28;20222;-69
2023/05/27 04:13:00;;;;;;;8.40;4.40;;;9.40;98.50;;;;;;2054853;28;20234;-69
2023/05/27 04:14:01;;;;;;;10.23;4.83;;;9.40;99.90;;;;;;2054892;28;20557;-68
2023/05/27 04:15:02;;;;;;;15.33;5.40;;;9.50;98.70;;;;;;2056346;28;20218;-68
2023/05/27 04:16:03;;;;;;;9.38;5.10;;;9.40;98.70;;;;;;2048466;28;20192;-68
2023/05/27 04:17:04;;;;;;;10.90;4.93;;;9.40;98.70;;;;;;2056476;28;20691;-67
2023/05/27 04:18:05;;;;;;;7.75;4.15;;;9.40;98.60;;;;;;2060543;28;20691;-68
2023/05/27 04:19:07;;;;;;;8.73;4.35;;;9.40;98.60;;;;;;2062062;28;20182;-68
2023/05/27 04:20:13;;;;;;;8.18;4.30;;;9.40;98.80;;;;;;2047245;28;20198;-67
2023/05/27 04:21:14;;;;;;;10.20;4.78;;;9.40;98.90;;;;;;2064070;28;20723;-68
2023/05/27 04:22:16;;;;;;;8.48;4.07;;;9.30;99.40;;;;;;2065053;28;20193;-67
2023/05/27 04:23:17;;;;;;;6.90;4.82;;;9.30;99.60;;;;;;2059945;28;20181;-67
2023/05/27 04:24:18;;;;;;;12.00;4.83;;;9.20;99.70;;;;;;2054308;28;20654;-68
2023/05/27 04:25:18;;;;;;;10.17;4.37;;;9.20;99.90;;;;;;2061299;28;20660;-67
2023/05/27 04:26:19;;;;;;;8.13;4.07;;;9.20;99.90;;;;;;2056343;28;20180;-67
2023/05/27 04:27:20;;;;;;;8.77;4.63;;;9.30;99.70;;;;;;2064317;28;20304;-68
2023/05/27 04:28:21;;;;;;;9.47;4.17;;;9.30;99.30;;;;;;2064514;28;20367;-66
2023/05/27 04:29:22;;;;;;;7.03;4.57;;;9.40;99.00;;;;;;2060815;28;20233;-67
2023/05/27 04:30:24;;;;;;;6.23;3.60;;;9.40;98.90;;;;;;2064571;28;20315;-67
2023/05/27 04:31:28;;;;;;;8.38;4.40;;;9.40;98.50;;;;;;2063683;28;20245;-67
2023/05/27 04:32:32;;;;;;;7.57;4.25;;;9.50;98.40;;;;;;2056719;28;20740;-68
2023/05/27 04:33:33;;;;;;;11.35;4.07;;;9.50;98.50;;;;;;2057395;28;20288;-67
2023/05/27 04:34:34;;;;;;;10.25;4.78;;;9.40;98.40;;;;;;2059283;28;20234;-68
2023/05/27 04:35:35;;;;;;;13.77;4.47;;;9.50;98.50;;;;;;2061266;28;21050;-67
2023/05/27 04:36:35;;;;;;;7.00;4.50;;;10.30;98.30;;;;;;2063732;28;20309;-67
2023/05/27 04:37:37;;;;;;;10.80;4.27;;;9.50;98.10;;;;;;2060063;28;20230;-67
2023/05/27 04:38:38;;;;;;;8.50;4.38;;;9.60;98.10;;;;;;2055712;28;20222;-67
2023/05/27 04:39:45;;;;;;;12.03;4.90;;;9.60;98.00;;;;;;2062534;28;20659;-67
2023/05/27 04:40:46;;;;;;;10.38;4.55;;;9.60;98.10;;;;;;2059141;28;20219;-67
2023/05/27 04:41:47;;;;;;;7.25;3.83;;;9.50;98.30;;;;;;2063121;28;20313;-67
2023/05/27 04:42:48;;;;;;;13.23;5.03;;;9.70;98.20;;;;;;2065078;28;20225;-67
2023/05/27 04:43:48;;;;;;;11.07;4.27;;;9.80;98.30;;;;;;2067288;28;20225;-67
2023/05/27 04:44:50;;;;;;;8.50;4.40;;;9.50;98.40;;;;;;2059666;28;20254;-67
2023/05/27 04:45:51;;;;;;;6.65;4.45;;;9.50;98.30;;;;;;2066520;28;20225;-67
2023/05/27 04:46:52;;;;;;;8.77;4.03;;;9.60;98.20;;;;;;2068013;28;20229;-67
2023/05/27 04:47:53;;;;;;;6.85;3.95;;;9.60;98.20;;;;;;2055072;28;20266;-68
2023/05/27 04:48:54;;;;;;;7.47;3.83;;;9.60;98.40;;;;;;2056478;28;20231;-67
2023/05/27 04:49:55;;;;;;;10.85;4.70;;;9.60;97.90;;;;;;2059346;28;20253;-67
2023/05/27 04:50:56;;;;;;;8.53;4.30;;;9.60;97.80;;;;;;2062436;28;20228;-67
2023/05/27 04:51:59;;;;;;;9.02;4.18;;;9.70;97.80;;;;;;2064092;28;20229;-67
2023/05/27 04:53:00;;;;;;;6.05;3.90;;;9.70;97.80;;;;;;2059984;28;20246;-69
2023/05/27 04:54:02;;;;;;;10.32;4.20;;;9.60;99.90;;;;;;2062812;28;20194;-68
2023/05/27 04:55:07;;;;;;;7.82;4.10;;;9.70;97.80;;;;;;2062336;28;20202;-68
2023/05/27 04:56:08;;;;;;;13.27;4.50;;;9.80;97.90;;;;;;2063774;28;20264;-67
2023/05/27 04:57:09;;;;;;;10.77;4.70;;;10.00;97.70;;;;;;2056533;28;20176;-71
2023/05/27 04:58:10;;;;;;;10.85;4.75;;;9.90;97.50;;;;;;2062904;28;20178;-67
2023/05/27 04:59:16;;;;;;;8.23;4.13;;;9.90;97.30;;;;;;2059852;28;20195;-68
2023/05/27 05:00:33;;;;;;;11.65;3.90;;;10.00;97.40;;;;;;2061115;28;20666;-68
2023/05/27 05:01:58;;;;;;;9.43;3.65;;;10.00;97.30;;;;;;2067243;28;20229;-67
2023/05/27 05:03:00;;;;;;;9.75;3.97;;;10.00;97.40;;;;;;2065061;28;20215;-67
2023/05/27 05:04:13;;;;;;;9.85;3.80;;;10.10;99.90;;;;;;2053888;28;20337;-69
2023/05/27 05:05:14;;;;;;;10.35;4.80;;;10.00;97.10;;;;;;2063182;28;20738;-68
2023/05/27 05:06:15;;;;;;;7.35;4.10;;;10.10;97.00;;;;;;2064332;28;20193;-67
2023/05/27 05:07:19;;;;;;;8.27;4.07;;;10.10;97.40;;;;;;2061139;28;20190;-67
2023/05/27 05:08:22;;;;;;;6.05;3.63;;;10.00;97.40;;;;;;2058305;28;21312;-68
2023/05/27 05:09:22;;;;;;;9.52;4.35;;;10.90;97.20;;;;;;2049940;28;20310;-68
2023/05/27 05:10:23;;;;;;;8.60;4.30;;;10.10;97.00;;;;;;2051552;28;20231;-67
2023/05/27 05:11:24;;;;;;;13.07;4.00;;;10.20;96.80;;;;;;2067292;28;20264;-67
2023/05/27 05:12:26;;;;;;;9.68;4.00;;;10.20;96.70;;;;;;2058028;28;20235;-67
2023/05/27 05:13:28;;;;;;;9.85;3.80;;;10.20;96.60;;;;;;2059412;28;20237;-67
2023/05/27 05:14:29;;;;;;;8.77;3.40;;;10.20;96.80;;;;;;2063518;28;20325;-67
2023/05/27 05:15:31;;;;;;;9.60;4.17;;;10.20;97.00;;;;;;2064082;28;20237;-67
2023/05/27 05:16:32;;;;;;;8.68;4.05;;;10.20;96.80;;;;;;2067782;28;20229;-67
2023/05/27 05:17:33;;;;;;;10.50;3.95;;;10.30;96.70;;;;;;2059136;28;20233;-68
2023/05/27 05:18:34;;;;;;;8.32;3.67;;;10.20;96.80;;;;;;2053730;28;20231;-67
2023/05/27 05:19:35;;;;;;;8.10;3.33;;;10.10;96.80;;;;;;2046619;28;20227;-67
2023/05/27 05:20:36;;;;;;;6.63;3.33;;;10.20;96.30;;;;;;2056689;28;20230;-67
2023/05/27 05:21:37;;;;;;;7.15;3.78;;;10.30;95.80;;;;;;2061170;28;20226;-67
2023/05/27 05:22:38;;;;;;;7.67;4.23;;;10.40;95.60;;;;;;2061727;28;20258;-67
2023/05/27 05:23:40;;;;;;;12.07;4.00;;;10.50;95.90;;;;;;2065865;28;20234;-67
2023/05/27 05:24:40;;;;;;;7.68;3.42;;;10.50;95.80;;;;;;2068240;28;20291;-66
2023/05/27 05:25:41;;;;;;;9.53;3.70;;;10.70;96.10;;;;;;2056263;28;20321;-66
2023/05/27 05:26:44;;;;;;;7.37;3.90;;;10.50;96.80;;;;;;2056343;28;20222;-66